createdAt,value
2022-12-08T00:01:12.351Z,97431.84
2022-12-08T00:03:39.965Z,97438.19
2022-12-08T00:06:26.812Z,97430.09
2022-12-08T00:09:12.723Z,97427.38
2022-12-08T00:11:39.814Z,97429.78
2022-12-08T00:14:06.927Z,97418.00
2022-12-08T00:16:34.000Z,97419.72
2022-12-08T00:19:01.073Z,97417.50
2022-12-08T00:21:28.763Z,97416.28
2022-12-08T00:23:56.482Z,97416.03
2022-12-08T00:26:23.848Z,97416.28
2022-12-08T00:28:50.884Z,97409.41
2022-12-08T00:31:18.033Z,97412.59
2022-12-08T00:33:45.229Z,97416.28
2022-12-08T00:36:13.940Z,97410.63
2022-12-08T00:38:41.654Z,97401.81
2022-12-08T00:41:16.840Z,97412.38
2022-12-08T00:43:43.937Z,97408.47
2022-12-08T00:46:12.224Z,97408.47
2022-12-08T00:48:39.348Z,97405.28
2022-12-08T00:51:06.382Z,97413.16
2022-12-08T00:53:33.481Z,97411.19
2022-12-08T00:56:00.548Z,97392.72
2022-12-08T00:58:27.599Z,97407.50
2022-12-08T01:00:54.734Z,97417.81
2022-12-08T01:03:21.913Z,97401.88
2022-12-08T01:05:49.324Z,97404.09
2022-12-08T01:08:17.035Z,97408.28
2022-12-08T01:10:44.331Z,97404.09
2022-12-08T01:13:11.385Z,97414.44
2022-12-08T01:15:38.897Z,97403.63
2022-12-08T01:18:06.136Z,97404.09
2022-12-08T01:20:33.191Z,97402.09
2022-12-08T01:23:00.253Z,97395.22
2022-12-08T01:25:27.693Z,97394.25
2022-12-08T01:27:54.843Z,97396.69
2022-12-08T01:30:22.089Z,97394.25
2022-12-08T01:32:49.126Z,97397.97
2022-12-08T01:35:16.227Z,97401.41
2022-12-08T01:37:43.280Z,97389.34
2022-12-08T01:40:10.646Z,97389.59
2022-12-08T01:42:38.328Z,97398.72
2022-12-08T01:45:14.686Z,97387.91
2022-12-08T01:47:45.876Z,97381.00
2022-12-08T01:50:14.224Z,97384.19
2022-12-08T01:52:44.132Z,97381.97
2022-12-08T01:55:18.000Z,97379.75
2022-12-08T01:57:51.313Z,97389.09
2022-12-08T02:00:21.201Z,97374.41
2022-12-08T02:02:58.803Z,97364.06
2022-12-08T02:05:32.027Z,97370.44
2022-12-08T02:08:00.546Z,97367.72
2022-12-08T02:10:30.938Z,97375.09
2022-12-08T02:12:58.912Z,97366.50
2022-12-08T02:15:36.076Z,97360.91
2022-12-08T02:18:03.152Z,97363.84
2022-12-08T02:20:58.617Z,97359.66
2022-12-08T02:23:35.136Z,97358.69
2022-12-08T02:26:14.419Z,97356.00
2022-12-08T02:29:06.301Z,97357.47
2022-12-08T02:32:20.661Z,97354.28
2022-12-08T02:35:12.812Z,97357.47
2022-12-08T02:37:51.678Z,97353.03
2022-12-08T02:40:31.538Z,97349.13
2022-12-08T02:43:03.834Z,97345.19
2022-12-08T02:45:38.166Z,97337.34
2022-12-08T02:48:05.999Z,97341.75
2022-12-08T02:50:33.075Z,97336.09
2022-12-08T02:53:01.684Z,97344.69
2022-12-08T02:55:39.965Z,97335.84
2022-12-08T02:58:26.302Z,97336.31
2022-12-08T03:01:09.157Z,97334.09
2022-12-08T03:04:02.849Z,97328.94
2022-12-08T03:06:29.877Z,97335.06
2022-12-08T03:09:06.796Z,97329.88
2022-12-08T03:11:38.955Z,97332.59
2022-12-08T03:14:07.565Z,97330.88
2022-12-08T03:16:37.323Z,97327.44
2022-12-08T03:19:10.825Z,97323.75
2022-12-08T03:21:38.928Z,97321.72
2022-12-08T03:24:07.473Z,97321.03
2022-12-08T03:26:39.714Z,97316.84
2022-12-08T03:29:06.826Z,97315.41
2022-12-08T03:31:39.832Z,97318.59
2022-12-08T03:34:07.679Z,97323.75
2022-12-08T03:36:34.957Z,97324.44
2022-12-08T03:39:01.992Z,97318.25
2022-12-08T03:41:29.188Z,97314.53
2022-12-08T03:43:59.364Z,97311.34
2022-12-08T03:48:55.153Z,97306.19
2022-12-08T03:51:23.030Z,97303.47
2022-12-08T03:53:50.282Z,97299.06
2022-12-08T03:56:32.346Z,97304.69
2022-12-08T03:58:59.990Z,97291.69
2022-12-08T04:01:27.836Z,97298.31
2022-12-08T04:03:55.245Z,97296.34
2022-12-08T04:06:22.440Z,97294.13
2022-12-08T04:08:50.448Z,97291.16
2022-12-08T04:11:18.897Z,97284.53
2022-12-08T04:13:46.372Z,97283.56
2022-12-08T04:16:16.559Z,97279.88
2022-12-08T04:18:43.780Z,97280.84
2022-12-08T04:21:10.989Z,97277.66
2022-12-08T04:23:38.197Z,97269.56
2022-12-08T04:26:05.686Z,97271.56
2022-12-08T04:28:32.841Z,97276.50
2022-12-08T04:31:00.213Z,97268.13
2022-12-08T04:33:27.420Z,97265.69
2022-12-08T04:35:54.492Z,97268.38
2022-12-08T04:38:21.579Z,97263.78
2022-12-08T04:40:48.757Z,97266.22
2022-12-08T04:43:15.877Z,97269.72
2022-12-08T04:45:43.335Z,97263.84
2022-12-08T04:48:13.177Z,97265.56
2022-12-08T04:50:42.086Z,97264.59
2022-12-08T04:53:09.976Z,97259.41
2022-12-08T04:55:41.952Z,97259.16
2022-12-08T04:58:12.245Z,97255.72
2022-12-08T05:00:39.992Z,97254.50
2022-12-08T05:03:07.098Z,97254.75
2022-12-08T05:05:34.169Z,97255.25
2022-12-08T05:08:01.349Z,97254.28
2022-12-08T05:10:28.834Z,97258.00
2022-12-08T05:12:55.983Z,97248.41
2022-12-08T05:15:23.047Z,97247.94
2022-12-08T05:17:50.308Z,97249.16
2022-12-08T05:20:17.505Z,97242.31
2022-12-08T05:22:44.591Z,97250.41
2022-12-08T05:25:12.297Z,97252.88
2022-12-08T05:27:39.317Z,97252.34
2022-12-08T05:30:07.295Z,97247.44
2022-12-08T05:32:34.576Z,97257.47
2022-12-08T05:35:01.613Z,97251.56
2022-12-08T05:37:28.726Z,97248.38
2022-12-08T05:39:55.783Z,97256.97
2022-12-08T05:42:24.970Z,97252.81
2022-12-08T05:44:52.648Z,97253.53
2022-12-08T05:47:19.713Z,97241.25
2022-12-08T05:49:46.910Z,97244.16
2022-12-08T05:52:14.015Z,97246.09
2022-12-08T05:54:41.053Z,97243.66
2022-12-08T05:57:08.305Z,97234.06
2022-12-08T05:59:35.333Z,97244.13
2022-12-08T06:02:02.584Z,97246.59
2022-12-08T06:04:29.769Z,97248.06
2022-12-08T06:06:56.808Z,97243.41
2022-12-08T06:09:23.977Z,97238.50
2022-12-08T06:11:51.015Z,97238.94
2022-12-08T06:14:18.054Z,97246.56
2022-12-08T06:16:45.186Z,97246.59
2022-12-08T06:19:12.244Z,97249.81
2022-12-08T06:21:39.334Z,97251.06
2022-12-08T06:24:06.536Z,97243.94
2022-12-08T06:26:35.880Z,97254.75
2022-12-08T06:29:02.971Z,97253.06
2022-12-08T06:31:30.096Z,97255.75
2022-12-08T06:33:57.219Z,97260.22
2022-12-08T06:36:26.396Z,97254.31
2022-12-08T06:38:53.445Z,97256.31
2022-12-08T06:41:20.870Z,97261.47
2022-12-08T06:43:47.952Z,97258.28
2022-12-08T06:46:17.709Z,97256.28
2022-12-08T06:48:45.222Z,97257.25
2022-12-08T06:51:20.627Z,97258.22
2022-12-08T06:53:47.747Z,97259.69
2022-12-08T06:56:15.956Z,97262.88
2022-12-08T06:58:46.155Z,97258.94
2022-12-08T07:01:17.729Z,97253.53
2022-12-08T07:03:44.972Z,97259.44
2022-12-08T07:06:18.125Z,97260.13
2022-12-08T07:08:45.242Z,97264.06
2022-12-08T07:11:16.678Z,97258.88
2022-12-08T07:13:48.181Z,97258.84
2022-12-08T07:16:15.318Z,97261.28
2022-12-08T07:18:43.925Z,97271.59
2022-12-08T07:21:13.122Z,97267.94
2022-12-08T07:23:40.872Z,97262.28
2022-12-08T07:26:10.113Z,97257.34
2022-12-08T07:28:38.762Z,97251.72
2022-12-08T07:31:06.880Z,97257.34
2022-12-08T07:33:36.095Z,97261.06
2022-12-08T07:36:05.472Z,97263.53
2022-12-08T07:38:32.961Z,97260.09
2022-12-08T07:41:00.817Z,97252.97
2022-12-08T07:43:28.034Z,97257.66
2022-12-08T07:45:55.214Z,97263.31
2022-12-08T07:48:22.581Z,97257.94
2022-12-08T07:50:49.651Z,97259.41
2022-12-08T07:53:16.742Z,97263.06
2022-12-08T07:55:44.398Z,97262.84
2022-12-08T07:58:11.986Z,97261.63
2022-12-08T08:00:39.203Z,97270.00
2022-12-08T08:03:08.951Z,97264.09
2022-12-08T08:05:36.218Z,97271.22
2022-12-08T08:08:03.558Z,97264.63
2022-12-08T08:10:30.813Z,97262.16
2022-12-08T08:13:01.061Z,97262.66
2022-12-08T08:15:28.840Z,97266.63
2022-12-08T08:17:56.234Z,97262.22
2022-12-08T08:20:23.458Z,97254.13
2022-12-08T08:22:51.435Z,97262.47
2022-12-08T08:25:19.527Z,97259.53
2022-12-08T08:27:46.901Z,97273.28
2022-12-08T08:30:20.029Z,97266.91
2022-12-08T08:32:48.683Z,97263.97
2022-12-08T08:35:15.934Z,97263.75
2022-12-08T08:37:47.212Z,97270.16
2022-12-08T08:40:17.574Z,97276.78
2022-12-08T08:42:44.647Z,97269.41
2022-12-08T08:45:11.810Z,97265.00
2022-12-08T08:47:39.030Z,97270.88
2022-12-08T08:50:07.134Z,97265.47
2022-12-08T08:52:34.777Z,97269.41
2022-12-08T08:55:01.947Z,97275.56
2022-12-08T08:57:29.061Z,97276.28
2022-12-08T08:59:56.164Z,97271.63
2022-12-08T09:02:23.317Z,97273.38
2022-12-08T09:04:50.466Z,97274.59
2022-12-08T09:07:17.717Z,97271.16
2022-12-08T09:09:44.747Z,97268.47
2022-12-08T09:12:12.669Z,97270.66
2022-12-08T09:14:40.228Z,97269.44
2022-12-08T09:17:08.755Z,97273.13
2022-12-08T09:19:36.167Z,97268.22
2022-12-08T09:22:03.349Z,97264.03
2022-12-08T09:24:30.473Z,97272.63
2022-12-08T09:26:57.550Z,97271.66
2022-12-08T09:29:25.603Z,97263.31
2022-12-08T09:31:54.637Z,97265.28
2022-12-08T09:34:21.985Z,97266.25
2022-12-08T09:36:49.070Z,97255.69
2022-12-08T09:39:16.133Z,97257.41
2022-12-08T09:41:49.763Z,97257.44
2022-12-08T09:44:34.811Z,97257.94
2022-12-08T09:47:04.100Z,97250.81
2022-12-08T09:49:37.213Z,97242.97
2022-12-08T09:52:04.787Z,97246.66
2022-12-08T09:54:34.665Z,97243.94
2022-12-08T09:57:14.935Z,97247.38
2022-12-08T09:59:49.354Z,97234.34
2022-12-08T10:02:23.195Z,97232.63
2022-12-08T10:04:50.669Z,97232.63
2022-12-08T10:07:23.931Z,97224.50
2022-12-08T10:10:28.412Z,97219.09
2022-12-08T10:13:15.015Z,97218.13
2022-12-08T10:15:51.270Z,97215.69
2022-12-08T10:18:28.117Z,97220.09
2022-12-08T10:20:59.208Z,97221.84
2022-12-08T10:23:36.983Z,97211.00
2022-12-08T10:26:12.796Z,97220.63
2022-12-08T10:28:44.797Z,97216.91
2022-12-08T10:31:19.030Z,97209.06
2022-12-08T10:33:47.551Z,97206.13
2022-12-08T10:36:14.651Z,97220.13
2022-12-08T10:38:41.775Z,97215.94
2022-12-08T10:41:13.115Z,97215.69
2022-12-08T10:44:00.948Z,97205.09
2022-12-08T10:46:29.079Z,97199.69
2022-12-08T10:49:11.222Z,97195.28
2022-12-08T10:51:40.804Z,97198.97
2022-12-08T10:54:29.436Z,97197.72
2022-12-08T10:56:57.698Z,97202.91
2022-12-08T10:59:25.716Z,97192.31
2022-12-08T11:01:55.295Z,97196.75
2022-12-08T11:04:36.203Z,97202.66
2022-12-08T11:07:05.451Z,97189.63
2022-12-08T11:09:50.855Z,97193.81
2022-12-08T11:12:20.377Z,97190.38
2022-12-08T11:14:50.539Z,97183.22
2022-12-08T11:17:24.586Z,97187.41
2022-12-08T11:20:14.822Z,97168.72
2022-12-08T11:22:43.763Z,97169.94
2022-12-08T11:25:15.018Z,97167.50
2022-12-08T11:27:44.696Z,97166.78
2022-12-08T11:30:22.051Z,97162.56
2022-12-08T11:32:53.324Z,97162.81
2022-12-08T11:35:33.919Z,97168.44
2022-12-08T11:38:25.203Z,97161.06
2022-12-08T11:41:10.946Z,97161.53
2022-12-08T11:43:55.744Z,97160.56
2022-12-08T11:46:29.121Z,97159.06
2022-12-08T11:49:12.575Z,97167.94
2022-12-08T11:51:48.441Z,97161.28
2022-12-08T11:54:25.403Z,97166.72
2022-12-08T11:57:03.924Z,97160.28
2022-12-08T11:59:46.130Z,97154.66
2022-12-08T12:02:34.373Z,97153.91
2022-12-08T12:05:47.526Z,97146.81
2022-12-08T12:08:28.216Z,97152.72
2022-12-08T12:11:10.512Z,97145.56
2022-12-08T12:14:00.347Z,97141.41
2022-12-08T12:17:05.382Z,97141.13
2022-12-08T12:19:37.734Z,97135.94
2022-12-08T12:22:15.763Z,97142.81
2022-12-08T12:24:44.531Z,97149.66
2022-12-08T12:27:14.649Z,97145.97
2022-12-08T12:29:52.263Z,97142.00
2022-12-08T12:32:23.355Z,97143.47
2022-12-08T12:34:53.730Z,97149.66
2022-12-08T12:37:26.696Z,97147.94
2022-12-08T12:39:58.521Z,97146.47
2022-12-08T12:42:39.388Z,97149.91
2022-12-08T12:45:12.725Z,97145.00
2022-12-08T12:47:56.343Z,97138.63
2022-12-08T12:50:33.539Z,97132.00
2022-12-08T12:53:26.384Z,97127.34
2022-12-08T12:56:02.546Z,97128.34
2022-12-08T12:58:29.587Z,97120.47
2022-12-08T13:01:12.463Z,97126.38
2022-12-08T13:03:48.550Z,97124.38
2022-12-08T13:06:32.553Z,97116.03
2022-12-08T13:09:00.231Z,97111.34
2022-12-08T13:11:27.299Z,97117.50
2022-12-08T13:14:03.754Z,97107.66
2022-12-08T13:16:38.680Z,97101.75
2022-12-08T13:19:13.184Z,97104.69
2022-12-08T13:21:40.508Z,97104.72
2022-12-08T13:24:10.534Z,97096.34
2022-12-08T13:26:48.993Z,97095.63
2022-12-08T13:29:28.420Z,97101.78
2022-12-08T13:31:57.181Z,97089.94
2022-12-08T13:34:37.184Z,97093.88
2022-12-08T13:37:16.081Z,97089.94
2022-12-08T13:39:56.610Z,97099.53
2022-12-08T13:42:36.398Z,97087.97
2022-12-08T13:46:12.238Z,97092.91
2022-12-08T13:57:24.693Z,97103.25
2022-12-08T13:59:51.733Z,97103.97
2022-12-08T14:02:29.475Z,97100.03
2022-12-08T14:07:43.934Z,97102.28
2022-12-08T14:10:17.974Z,97104.25
2022-12-08T14:12:47.183Z,97110.41
2022-12-08T14:15:15.594Z,97110.41
2022-12-08T14:17:51.609Z,97115.06
2022-12-08T14:20:30.287Z,97111.41
2022-12-08T14:22:59.345Z,97115.56
2022-12-08T14:25:30.058Z,97117.06
2022-12-08T14:28:02.985Z,97116.81
2022-12-08T14:30:34.208Z,97116.09
2022-12-08T14:33:03.338Z,97111.66
2022-12-08T14:35:38.502Z,97116.81
2022-12-08T14:38:12.471Z,97114.13
2022-12-08T14:40:48.388Z,97109.22
2022-12-08T14:43:19.959Z,97118.81
2022-12-08T14:45:47.847Z,97123.72
2022-12-08T14:48:19.033Z,97126.91
2022-12-08T14:50:57.622Z,97119.78
2022-12-08T14:53:25.181Z,97124.94
2022-12-08T14:55:52.412Z,97115.34
2022-12-08T14:58:27.969Z,97128.88
2022-12-08T15:00:59.152Z,97123.72
2022-12-08T15:03:28.681Z,97124.22
2022-12-08T15:06:01.046Z,97122.72
2022-12-08T15:08:28.281Z,97130.38
2022-12-08T15:11:27.393Z,97129.38
2022-12-08T15:13:54.585Z,97130.63
2022-12-08T15:16:37.252Z,97134.81
2022-12-08T15:19:16.955Z,97139.97
2022-12-08T15:21:44.747Z,97135.78
2022-12-08T15:24:12.873Z,97133.81
2022-12-08T15:26:46.298Z,97136.28
2022-12-08T15:29:27.957Z,97134.56
2022-12-08T15:31:57.921Z,97133.09
2022-12-08T15:34:25.221Z,97134.06
2022-12-08T15:36:53.843Z,97134.56
2022-12-08T15:39:27.923Z,97132.38
2022-12-08T15:41:55.055Z,97134.31
2022-12-08T15:44:22.893Z,97136.53
2022-12-08T15:46:50.307Z,97133.09
2022-12-08T15:49:19.029Z,97137.78
2022-12-08T15:51:46.263Z,97136.03
2022-12-08T15:54:14.227Z,97128.66
2022-12-08T15:57:17.299Z,97136.78
2022-12-08T15:59:34.230Z,97131.13
2022-12-08T16:02:01.301Z,97131.41
2022-12-08T16:05:17.893Z,97130.66
2022-12-08T16:07:24.918Z,97130.88
2022-12-08T16:09:52.141Z,97130.88
2022-12-08T16:13:40.483Z,97126.72
2022-12-08T16:18:17.231Z,97123.53
2022-12-08T16:21:07.552Z,97126.72
2022-12-08T16:23:42.856Z,97125.75
2022-12-08T16:26:28.635Z,97129.19
2022-12-08T16:29:00.348Z,97136.31
2022-12-08T16:31:27.453Z,97138.00
2022-12-08T16:33:54.555Z,97136.53
2022-12-08T16:36:21.609Z,97131.41
2022-12-08T16:38:48.663Z,97134.09
2022-12-08T16:41:35.387Z,97133.88
2022-12-08T16:44:03.964Z,97137.03
2022-12-08T16:46:31.520Z,97130.41
2022-12-08T16:48:58.978Z,97134.34
2022-12-08T16:51:27.349Z,97133.63
2022-12-08T16:53:58.350Z,97132.38
2022-12-08T16:56:32.150Z,97125.50
2022-12-08T16:58:59.853Z,97129.41
2022-12-08T17:01:26.969Z,97131.16
2022-12-08T17:06:41.233Z,97128.69
2022-12-08T17:09:08.252Z,97132.38
2022-12-08T17:11:42.309Z,97129.91
2022-12-08T17:14:11.617Z,97132.38
2022-12-08T17:16:38.940Z,97136.31
2022-12-08T17:19:06.058Z,97131.63
2022-12-08T17:21:33.119Z,97134.09
2022-12-08T17:24:00.295Z,97129.41
2022-12-08T17:26:27.361Z,97125.00
2022-12-08T17:29:01.827Z,97122.03
2022-12-08T17:31:31.259Z,97119.84
2022-12-08T17:34:03.167Z,97131.38
2022-12-08T17:36:30.534Z,97123.78
2022-12-08T17:38:59.386Z,97125.97
2022-12-08T17:41:26.931Z,97125.00
2022-12-08T17:43:54.049Z,97123.03
2022-12-08T17:46:22.237Z,97120.34
2022-12-08T17:48:49.662Z,97123.78
2022-12-08T17:51:16.821Z,97130.66
2022-12-08T17:53:43.926Z,97124.72
2022-12-08T17:56:16.800Z,97130.13
2022-12-08T17:58:44.888Z,97131.63
2022-12-08T18:01:13.136Z,97131.84
2022-12-08T18:03:40.314Z,97134.06
2022-12-08T18:06:12.378Z,97131.84
2022-12-08T18:08:39.781Z,97123.25
2022-12-08T18:11:11.984Z,97120.56
2022-12-08T18:13:39.110Z,97124.00
2022-12-08T18:16:06.413Z,97126.97
2022-12-08T18:18:33.531Z,97116.16
2022-12-08T18:21:00.561Z,97115.44
2022-12-08T18:23:27.804Z,97118.88
2022-12-08T18:25:54.872Z,97116.63
2022-12-08T18:28:21.924Z,97116.88
2022-12-08T18:30:49.244Z,97118.13
2022-12-08T18:33:16.369Z,97113.22
2022-12-08T18:35:43.454Z,97117.38
2022-12-08T18:38:10.482Z,97121.09
2022-12-08T18:40:37.683Z,97118.38
2022-12-08T18:43:04.726Z,97119.84
2022-12-08T18:45:32.076Z,97113.72
2022-12-08T18:47:59.134Z,97117.16
2022-12-08T18:50:26.375Z,97119.59
2022-12-08T18:52:53.419Z,97115.91
2022-12-08T18:55:20.687Z,97118.38
2022-12-08T18:57:47.857Z,97120.34
2022-12-08T19:00:17.352Z,97114.44
2022-12-08T19:02:44.784Z,97118.59
2022-12-08T19:05:13.412Z,97117.41
2022-12-08T19:07:42.475Z,97114.94
2022-12-08T19:10:10.635Z,97120.56
2022-12-08T19:12:37.826Z,97117.38
2022-12-08T19:15:05.766Z,97114.94
2022-12-08T19:17:33.274Z,97115.16
2022-12-08T19:20:00.307Z,97120.34
2022-12-08T19:22:27.392Z,97120.84
2022-12-08T19:24:54.438Z,97131.88
2022-12-08T19:27:21.546Z,97132.88
2022-12-08T19:29:48.670Z,97130.63
2022-12-08T19:32:15.745Z,97125.25
2022-12-08T19:34:43.067Z,97122.28
2022-12-08T19:37:12.519Z,97131.38
2022-12-08T19:39:58.349Z,97139.75
2022-12-08T19:42:43.783Z,97134.81
2022-12-08T19:45:14.167Z,97137.28
2022-12-08T19:47:41.591Z,97132.38
2022-12-08T19:50:28.340Z,97134.81
2022-12-08T19:52:56.353Z,97136.56
2022-12-08T19:55:24.443Z,97145.63
2022-12-08T19:57:52.436Z,97140.50
2022-12-08T20:00:20.254Z,97149.31
2022-12-08T20:02:47.875Z,97146.63
2022-12-08T20:05:15.568Z,97143.66
2022-12-08T20:07:42.883Z,97139.72
2022-12-08T20:10:22.778Z,97139.00
2022-12-08T20:12:49.925Z,97141.69
2022-12-08T20:15:17.177Z,97133.09
2022-12-08T20:17:44.260Z,97141.44
2022-12-08T20:20:13.169Z,97124.00
2022-12-08T20:22:40.723Z,97130.66
2022-12-08T20:25:12.808Z,97136.53
2022-12-08T20:27:40.574Z,97131.88
2022-12-08T20:30:13.299Z,97138.03
2022-12-08T20:32:43.911Z,97137.03
2022-12-08T20:35:10.956Z,97150.53
2022-12-08T20:37:38.305Z,97139.25
2022-12-08T20:40:06.155Z,97147.09
2022-12-08T20:42:33.359Z,97151.53
2022-12-08T20:45:00.453Z,97153.25
2022-12-08T20:47:27.909Z,97147.84
2022-12-08T20:49:55.135Z,97147.84
2022-12-08T20:52:22.244Z,97139.97
2022-12-08T20:54:49.417Z,97150.28
2022-12-08T20:57:16.639Z,97141.69
2022-12-08T20:59:43.873Z,97157.91
2022-12-08T21:02:11.392Z,97153.97
2022-12-08T21:04:38.896Z,97155.19
2022-12-08T21:07:06.143Z,97152.22
2022-12-08T21:09:33.444Z,97152.00
2022-12-08T21:12:00.781Z,97158.13
2022-12-08T21:14:27.932Z,97159.34
2022-12-08T21:16:56.172Z,97157.84
2022-12-08T21:19:24.110Z,97164.75
2022-12-08T21:21:51.276Z,97166.47
2022-12-08T21:24:18.789Z,97161.31
2022-12-08T21:26:45.993Z,97155.91
2022-12-08T21:29:13.137Z,97159.84
2022-12-08T21:31:40.634Z,97157.66
2022-12-08T21:34:07.962Z,97146.59
2022-12-08T21:36:35.114Z,97154.44
2022-12-08T21:39:02.940Z,97154.72
2022-12-08T21:41:48.988Z,97156.91
2022-12-08T21:44:20.166Z,97145.09
2022-12-08T21:46:47.479Z,97146.34
2022-12-08T21:49:14.834Z,97144.88
2022-12-08T21:51:42.399Z,97153.47
2022-12-08T21:54:16.695Z,97150.28
2022-12-08T21:56:47.702Z,97152.72
2022-12-08T21:59:15.545Z,97151.75
2022-12-08T22:01:45.978Z,97150.00
2022-12-08T22:04:16.915Z,97166.22
2022-12-08T22:06:44.191Z,97162.06
2022-12-08T22:09:13.490Z,97159.09
2022-12-08T22:11:41.469Z,97159.09
2022-12-08T22:14:14.036Z,97157.13
2022-12-08T22:16:43.221Z,97163.25
2022-12-08T22:19:10.686Z,97162.78
2022-12-08T22:21:38.467Z,97160.56
2022-12-08T22:24:06.351Z,97160.09
2022-12-08T22:26:33.984Z,97160.06
2022-12-08T22:29:01.338Z,97165.22
2022-12-08T22:31:29.130Z,97165.00
2022-12-08T22:33:58.855Z,97163.28
2022-12-08T22:36:27.448Z,97159.59
2022-12-08T22:38:55.270Z,97148.56
2022-12-08T22:41:22.751Z,97155.16
2022-12-08T22:43:50.472Z,97150.53
2022-12-08T22:46:22.908Z,97151.50
2022-12-08T22:48:51.421Z,97151.72
2022-12-08T22:51:19.337Z,97155.44
2022-12-08T22:53:47.499Z,97160.09
2022-12-08T22:56:16.031Z,97161.53
2022-12-08T22:58:44.170Z,97162.53
2022-12-08T23:01:31.923Z,97156.84
2022-12-08T23:04:00.127Z,97163.75
2022-12-08T23:06:28.490Z,97151.00
2022-12-08T23:08:59.252Z,97157.59
2022-12-08T23:11:30.327Z,97155.59
2022-12-08T23:14:00.347Z,97154.88
2022-12-08T23:16:28.099Z,97154.13
2022-12-08T23:18:55.442Z,97153.13
2022-12-08T23:21:22.581Z,97155.59
2022-12-08T23:23:49.660Z,97158.53
2022-12-08T23:26:22.926Z,97152.66
2022-12-08T23:28:50.562Z,97154.13
2022-12-08T23:31:18.777Z,97154.34
2022-12-08T23:33:46.149Z,97152.16
2022-12-08T23:36:14.748Z,97151.41
2022-12-08T23:38:42.104Z,97155.34
2022-12-08T23:41:12.323Z,97159.78
2022-12-08T23:43:50.265Z,97153.66
2022-12-08T23:46:19.683Z,97150.94
2022-12-08T23:48:47.392Z,97151.66
2022-12-08T23:51:14.546Z,97154.13
2022-12-08T23:53:41.751Z,97153.38
2022-12-08T23:56:12.151Z,97158.53
2022-12-08T23:58:40.130Z,97155.34
